createdAt,value
2018-04-08T00:01:29.463Z,13.33
2018-04-08T00:03:56.884Z,12.03
2018-04-08T00:06:25.080Z,13.43
2018-04-08T00:08:52.500Z,10.27
2018-04-08T00:11:20.722Z,11.20
2018-04-08T00:13:48.140Z,19.92
2018-04-08T00:16:16.344Z,13.00
2018-04-08T00:18:43.775Z,12.30
2018-04-08T00:21:11.999Z,13.77
2018-04-08T00:23:39.458Z,11.73
2018-04-08T00:26:06.891Z,16.63
2018-04-08T00:28:34.359Z,16.13
2018-04-08T00:31:01.774Z,9.90
2018-04-08T00:33:29.991Z,15.63
2018-04-08T00:35:57.433Z,12.32
2018-04-08T00:38:24.870Z,11.00
2018-04-08T00:40:52.294Z,14.07
2018-04-08T00:43:19.831Z,8.83
2018-04-08T00:45:47.266Z,11.30
2018-04-08T00:48:14.719Z,10.43
2018-04-08T00:50:42.149Z,8.40
2018-04-08T00:53:10.345Z,16.23
2018-04-08T00:55:37.781Z,11.60
2018-04-08T00:58:05.994Z,11.32
2018-04-08T01:00:33.426Z,11.33
2018-04-08T01:03:00.871Z,13.70
2018-04-08T01:05:29.078Z,11.00
2018-04-08T01:07:56.518Z,10.43
2018-04-08T01:10:23.973Z,11.73
2018-04-08T01:12:51.412Z,10.30
2018-04-08T01:15:19.601Z,10.33
2018-04-08T01:17:47.082Z,11.20
2018-04-08T01:20:14.532Z,11.80
2018-04-08T01:22:41.956Z,11.80
2018-04-08T01:25:10.179Z,12.63
2018-04-08T01:27:37.616Z,10.80
2018-04-08T01:30:05.049Z,10.43
2018-04-08T01:32:33.268Z,13.68
2018-04-08T01:35:00.705Z,13.63
2018-04-08T01:37:28.135Z,10.70
2018-04-08T01:39:56.346Z,11.07
2018-04-08T01:42:23.802Z,11.17
2018-04-08T01:44:51.229Z,11.70
2018-04-08T01:47:19.441Z,14.43
2018-04-08T01:49:46.886Z,10.47
2018-04-08T01:52:15.189Z,9.57
2018-04-08T01:54:42.629Z,9.87
2018-04-08T01:57:10.096Z,12.73
2018-04-08T01:59:37.524Z,9.07
2018-04-08T02:02:04.977Z,15.00
2018-04-08T02:04:33.368Z,12.73
2018-04-08T02:07:00.814Z,10.60
2018-04-08T02:09:28.251Z,13.83
2018-04-08T02:11:56.449Z,9.00
2018-04-08T02:14:23.883Z,13.43
2018-04-08T02:16:52.074Z,11.45
2018-04-08T02:19:19.505Z,12.60
2018-04-08T02:21:46.928Z,10.20
2018-04-08T02:24:14.367Z,9.43
2018-04-08T02:26:44.271Z,9.60
2018-04-08T02:29:11.733Z,10.60
2018-04-08T02:31:39.143Z,10.43
2018-04-08T02:34:06.581Z,11.10
2018-04-08T02:36:34.013Z,9.20
2018-04-08T02:39:01.459Z,9.37
2018-04-08T02:41:28.907Z,9.43
2018-04-08T02:43:56.334Z,11.20
2018-04-08T02:46:24.547Z,11.03
2018-04-08T02:48:52.657Z,13.48
2018-04-08T02:51:20.097Z,11.83
2018-04-08T02:53:47.525Z,9.87
2018-04-08T02:56:14.981Z,11.20
2018-04-08T02:58:42.402Z,9.43
2018-04-08T03:01:09.850Z,15.13
2018-04-08T03:03:37.287Z,10.73
2018-04-08T03:06:04.722Z,9.60
2018-04-08T03:08:32.161Z,10.10
2018-04-08T03:10:59.596Z,12.87
2018-04-08T03:13:27.797Z,9.20
2018-04-08T03:15:55.241Z,10.57
2018-04-08T03:18:22.678Z,13.37
2018-04-08T03:20:50.122Z,9.07
2018-04-08T03:23:17.563Z,9.45
2018-04-08T03:25:45.004Z,10.93
2018-04-08T03:28:12.437Z,9.40
2018-04-08T03:30:39.869Z,11.17
2018-04-08T03:33:08.082Z,10.37
2018-04-08T03:35:35.530Z,13.80
2018-04-08T03:38:02.978Z,9.40
2018-04-08T03:40:30.418Z,9.93
2018-04-08T03:42:58.630Z,11.17
2018-04-08T03:45:26.080Z,17.80
2018-04-08T03:47:53.517Z,10.03
2018-04-08T03:50:20.970Z,11.63
2018-04-08T03:52:49.174Z,10.97
2018-04-08T03:55:16.627Z,11.90
2018-04-08T03:57:44.054Z,11.40
2018-04-08T04:00:12.264Z,13.52
2018-04-08T04:02:39.711Z,16.23
2018-04-08T04:05:07.281Z,10.03
2018-04-08T04:07:34.751Z,10.43
2018-04-08T04:10:02.293Z,10.00
2018-04-08T04:12:29.742Z,9.97
2018-04-08T04:14:57.180Z,8.27
2018-04-08T04:17:25.394Z,8.13
2018-04-08T04:20:04.582Z,12.00
2018-04-08T04:22:44.692Z,8.77
2018-04-08T04:25:25.965Z,11.53
2018-04-08T04:27:53.422Z,8.50
2018-04-08T04:30:20.838Z,9.47
2018-04-08T04:32:49.036Z,9.73
2018-04-08T04:35:16.880Z,9.73
2018-04-08T04:37:45.139Z,9.43
2018-04-08T04:40:12.542Z,8.70
2018-04-08T04:42:40.019Z,9.53
2018-04-08T04:45:07.452Z,11.40
2018-04-08T04:47:34.919Z,10.43
2018-04-08T04:50:02.341Z,11.17
2018-04-08T04:52:29.836Z,10.57
2018-04-08T04:54:57.266Z,11.30
2018-04-08T04:57:24.710Z,10.93
2018-04-08T04:59:54.224Z,9.93
2018-04-08T05:02:21.657Z,13.47
2018-04-08T05:04:49.869Z,10.40
2018-04-08T05:07:17.305Z,12.80
2018-04-08T05:09:45.500Z,9.33
2018-04-08T05:12:12.921Z,9.93
2018-04-08T05:14:41.112Z,11.70
2018-04-08T05:17:08.547Z,9.90
2018-04-08T05:19:36.756Z,10.43
2018-04-08T05:22:04.205Z,8.90
2018-04-08T05:24:31.638Z,11.47
2018-04-08T05:26:59.078Z,11.57
2018-04-08T05:29:26.531Z,10.27
2018-04-08T05:31:53.965Z,10.90
2018-04-08T05:34:21.509Z,11.75
2018-04-08T05:36:48.914Z,8.67
2018-04-08T05:39:16.362Z,10.97
2018-04-08T05:41:43.789Z,13.40
2018-04-08T05:44:11.243Z,9.50
2018-04-08T05:46:38.667Z,13.60
2018-04-08T05:49:06.884Z,12.47
2018-04-08T05:51:34.309Z,14.13
2018-04-08T05:54:02.685Z,11.60
2018-04-08T05:56:30.124Z,13.63
2018-04-08T05:58:58.343Z,12.25
2018-04-08T06:01:25.772Z,12.90
2018-04-08T06:03:53.269Z,11.63
2018-04-08T06:06:21.412Z,12.43
2018-04-08T06:08:48.849Z,13.03
2018-04-08T06:11:17.072Z,11.70
2018-04-08T06:13:44.513Z,13.57
2018-04-08T06:16:11.957Z,16.30
2018-04-08T06:18:39.397Z,13.35
2018-04-08T06:21:07.599Z,14.80
2018-04-08T06:23:35.046Z,14.20
2018-04-08T06:26:02.494Z,14.60
2018-04-08T06:28:29.950Z,12.70
2018-04-08T06:30:58.140Z,13.10
2018-04-08T06:33:25.588Z,14.50
2018-04-08T06:35:53.033Z,22.10
2018-04-08T06:38:21.237Z,16.17
2018-04-08T06:40:48.719Z,13.67
2018-04-08T06:43:16.155Z,15.17
2018-04-08T06:45:43.602Z,14.83
2018-04-08T06:48:11.050Z,19.50
2018-04-08T06:50:38.515Z,14.77
2018-04-08T06:53:05.966Z,15.83
2018-04-08T06:55:33.420Z,14.63
2018-04-08T06:58:01.642Z,13.20
2018-04-08T07:00:29.082Z,16.00
2018-04-08T07:02:56.522Z,16.08
2018-04-08T07:05:24.200Z,12.90
2018-04-08T07:07:51.634Z,12.80
2018-04-08T07:10:19.077Z,15.43
2018-04-08T07:12:46.521Z,13.57
2018-04-08T07:15:14.730Z,16.07
2018-04-08T07:17:42.170Z,14.43
2018-04-08T07:20:09.647Z,16.37
2018-04-08T07:22:37.102Z,17.07
2018-04-08T07:25:04.568Z,21.63
2018-04-08T07:27:33.051Z,13.97
2018-04-08T07:30:00.504Z,16.00
2018-04-08T07:32:27.976Z,13.40
2018-04-08T07:34:55.454Z,14.87
2018-04-08T07:37:22.885Z,18.63
2018-04-08T07:39:50.336Z,14.77
2018-04-08T07:42:17.786Z,21.30
2018-04-08T07:44:45.234Z,16.23
2018-04-08T07:47:12.678Z,21.17
2018-04-08T07:49:40.880Z,17.23
2018-04-08T07:52:08.318Z,17.37
2018-04-08T07:54:35.835Z,17.70
2018-04-08T07:57:03.287Z,18.10
2018-04-08T07:59:32.256Z,16.70
2018-04-08T08:01:59.710Z,15.20
2018-04-08T08:04:27.162Z,19.30
2018-04-08T08:06:54.618Z,15.30
2018-04-08T08:09:22.079Z,15.80
2018-04-08T08:11:49.534Z,18.60
2018-04-08T08:14:16.974Z,18.67
2018-04-08T08:16:44.430Z,17.50
2018-04-08T08:19:11.874Z,19.03
2018-04-08T08:21:39.320Z,18.70
2018-04-08T08:24:07.961Z,16.83
2018-04-08T08:26:35.416Z,18.47
2018-04-08T08:29:02.873Z,24.90
2018-04-08T08:31:30.331Z,16.37
2018-04-08T08:33:57.793Z,17.90
2018-04-08T08:36:25.246Z,15.07
2018-04-08T08:38:52.702Z,15.67
2018-04-08T08:41:20.817Z,29.83
2018-04-08T08:43:49.038Z,15.50
2018-04-08T08:46:16.502Z,21.97
2018-04-08T08:48:43.943Z,18.67
2018-04-08T08:51:11.392Z,18.80
2018-04-08T08:53:38.831Z,21.23
2018-04-08T08:56:07.048Z,18.23
2018-04-08T08:58:34.484Z,17.67
2018-04-08T09:01:01.922Z,17.87
2018-04-08T09:03:29.357Z,15.23
2018-04-08T09:05:57.566Z,17.57
2018-04-08T09:08:25.035Z,20.57
2018-04-08T09:10:52.466Z,21.17
2018-04-08T09:13:20.664Z,20.83
2018-04-08T09:15:48.136Z,18.27
2018-04-08T09:18:15.582Z,18.73
2018-04-08T09:20:45.652Z,19.87
2018-04-08T09:23:18.799Z,19.00
2018-04-08T09:26:02.960Z,22.53
2018-04-08T09:28:30.424Z,21.40
2018-04-08T09:30:57.891Z,18.67
2018-04-08T09:33:25.343Z,22.40
2018-04-08T09:35:52.782Z,23.30
2018-04-08T09:38:20.241Z,22.10
2018-04-08T09:40:47.670Z,25.13
2018-04-08T09:43:15.121Z,20.27
2018-04-08T09:45:42.558Z,20.20
2018-04-08T09:48:10.776Z,27.17
2018-04-08T09:50:38.210Z,20.70
2018-04-08T09:53:05.656Z,20.70
2018-04-08T09:55:33.861Z,22.50
2018-04-08T09:58:02.258Z,22.23
2018-04-08T10:13:54.898Z,23.60
2018-04-08T10:16:22.336Z,22.33
2018-04-08T10:18:49.777Z,21.50
2018-04-08T10:21:17.217Z,22.20
2018-04-08T10:23:45.435Z,22.65
2018-04-08T10:26:12.891Z,20.37
2018-04-08T10:28:40.369Z,23.40
2018-04-08T10:31:07.822Z,21.20
2018-04-08T10:33:35.282Z,20.60
2018-04-08T10:36:02.720Z,26.40
2018-04-08T10:38:30.172Z,29.10
2018-04-08T10:40:57.615Z,26.50
2018-04-08T10:43:25.064Z,24.30
2018-04-08T10:45:52.510Z,24.40
2018-04-08T10:48:19.959Z,25.73
2018-04-08T10:50:48.176Z,24.70
2018-04-08T10:53:15.612Z,26.67
2018-04-08T10:55:43.064Z,25.33
2018-04-08T10:58:10.523Z,26.33
2018-04-08T11:00:38.736Z,27.33
2018-04-08T11:03:06.179Z,22.30
2018-04-08T11:05:33.608Z,23.33
2018-04-08T11:08:01.046Z,24.13
2018-04-08T11:10:29.266Z,25.87
2018-04-08T11:12:56.832Z,24.00
2018-04-08T11:15:24.294Z,23.07
2018-04-08T11:17:51.724Z,23.97
2018-04-08T11:20:19.222Z,24.27
2018-04-08T11:22:46.678Z,22.95
2018-04-08T11:25:14.131Z,23.43
2018-04-08T11:27:41.686Z,22.90
2018-04-08T11:30:09.156Z,26.43
2018-04-08T11:32:37.396Z,23.93
2018-04-08T11:35:05.024Z,24.77
2018-04-08T11:37:32.470Z,23.33
2018-04-08T11:39:59.912Z,29.10
2018-04-08T11:42:28.132Z,21.30
2018-04-08T11:44:55.570Z,21.70
2018-04-08T11:47:23.788Z,24.83
2018-04-08T11:49:51.238Z,22.40
2018-04-08T11:52:18.669Z,21.67
2018-04-08T11:54:47.381Z,22.27
2018-04-08T11:57:14.829Z,23.70
2018-04-08T11:59:42.274Z,23.10
2018-04-08T12:02:09.706Z,21.20
2018-04-08T12:04:37.173Z,20.53
2018-04-08T12:07:05.403Z,24.30
2018-04-08T12:09:32.848Z,20.60
2018-04-08T12:12:00.283Z,20.73
2018-04-08T12:14:27.744Z,19.50
2018-04-08T12:16:56.437Z,20.53
2018-04-08T12:19:23.892Z,16.37
2018-04-08T12:21:51.350Z,19.70
2018-04-08T12:24:18.795Z,18.70
2018-04-08T12:26:48.217Z,15.07
2018-04-08T12:29:15.655Z,13.10
2018-04-08T12:31:43.107Z,16.00
2018-04-08T12:34:11.314Z,17.40
2018-04-08T12:36:38.755Z,14.57
2018-04-08T12:39:06.203Z,16.73
2018-04-08T12:41:33.670Z,14.20
2018-04-08T12:44:01.106Z,14.50
2018-04-08T12:46:29.339Z,11.10
2018-04-08T12:48:56.779Z,9.50
2018-04-08T12:51:24.237Z,15.83
2018-04-08T12:53:51.699Z,12.00
2018-04-08T12:56:19.137Z,10.80
2018-04-08T12:58:47.243Z,9.47
2018-04-08T13:01:14.794Z,11.73
2018-04-08T13:03:42.235Z,13.13
2018-04-08T13:06:09.684Z,12.10
2018-04-08T13:08:37.131Z,8.77
2018-04-08T13:11:04.624Z,7.10
2018-04-08T13:13:32.046Z,10.60
2018-04-08T13:15:59.492Z,8.23
2018-04-08T13:18:26.950Z,9.23
2018-04-08T13:20:54.418Z,10.57
2018-04-08T13:23:22.618Z,8.60
2018-04-08T13:25:50.161Z,8.23
2018-04-08T13:28:17.648Z,10.77
2018-04-08T13:30:45.098Z,5.90
2018-04-08T13:33:12.542Z,6.00
2018-04-08T13:35:40.005Z,7.17
2018-04-08T13:38:07.437Z,15.43
2018-04-08T13:40:34.873Z,9.53
2018-04-08T13:43:03.085Z,10.20
2018-04-08T13:45:31.445Z,8.30
2018-04-08T13:47:58.881Z,7.43
2018-04-08T13:50:27.090Z,8.73
2018-04-08T13:52:54.531Z,8.63
2018-04-08T13:55:21.962Z,12.13
2018-04-08T13:57:50.189Z,10.32
2018-04-08T14:00:17.621Z,10.57
2018-04-08T14:02:45.062Z,9.67
2018-04-08T14:05:12.593Z,8.30
2018-04-08T14:07:40.103Z,7.03
2018-04-08T14:10:07.536Z,16.63
2018-04-08T14:12:35.758Z,10.93
2018-04-08T14:15:03.215Z,12.17
2018-04-08T14:17:30.667Z,11.40
2018-04-08T14:19:58.092Z,9.35
2018-04-08T14:22:25.533Z,13.87
2018-04-08T14:24:53.766Z,11.07
2018-04-08T14:27:21.201Z,10.47
2018-04-08T14:29:48.651Z,12.70
2018-04-08T14:32:16.085Z,9.00
2018-04-08T14:34:44.285Z,13.23
2018-04-08T14:37:11.731Z,9.17
2018-04-08T14:39:39.156Z,13.23
2018-04-08T14:42:07.384Z,8.10
2018-04-08T14:44:34.833Z,13.00
2018-04-08T14:47:02.275Z,13.73
2018-04-08T14:49:29.710Z,9.83
2018-04-08T14:51:57.983Z,10.07
2018-04-08T14:54:25.363Z,8.57
2018-04-08T14:56:52.817Z,13.00
2018-04-08T14:59:20.272Z,6.10
2018-04-08T15:01:48.459Z,9.00
2018-04-08T15:04:15.907Z,8.67
2018-04-08T15:06:43.342Z,9.23
2018-04-08T15:09:11.557Z,10.03
2018-04-08T15:11:38.985Z,10.37
2018-04-08T15:14:06.437Z,10.63
2018-04-08T15:16:34.649Z,11.57
2018-04-08T15:19:02.119Z,8.50
2018-04-08T15:21:29.562Z,11.47
2018-04-08T15:23:57.787Z,9.37
2018-04-08T15:26:25.230Z,6.35
2018-04-08T15:28:52.664Z,8.73
2018-04-08T15:31:20.101Z,9.47
2018-04-08T15:33:47.546Z,9.20
2018-04-08T15:36:14.990Z,6.23
2018-04-08T15:38:43.190Z,8.30
2018-04-08T15:41:10.616Z,9.07
2018-04-08T15:43:38.824Z,9.50
2018-04-08T15:46:10.046Z,7.87
2018-04-08T15:48:37.520Z,10.02
2018-04-08T15:51:04.947Z,11.43
2018-04-08T15:53:33.142Z,11.53
2018-04-08T15:56:01.352Z,13.30
2018-04-08T15:58:28.813Z,12.50
2018-04-08T16:00:56.253Z,14.13
2018-04-08T16:03:23.692Z,11.87
2018-04-08T16:05:51.134Z,11.30
2018-04-08T16:08:18.665Z,9.33
2018-04-08T16:10:46.108Z,12.18
2018-04-08T16:13:13.556Z,10.63
2018-04-08T16:15:41.005Z,12.80
2018-04-08T16:18:08.446Z,14.03
2018-04-08T16:20:36.819Z,11.10
2018-04-08T16:23:04.265Z,11.00
2018-04-08T16:25:31.719Z,11.20
2018-04-08T16:27:59.910Z,10.60
2018-04-08T16:30:27.357Z,12.10
2018-04-08T16:32:54.810Z,11.60
2018-04-08T16:35:22.250Z,12.20
2018-04-08T16:37:50.472Z,10.40
2018-04-08T16:40:17.952Z,10.97
2018-04-08T16:42:46.646Z,11.52
2018-04-08T16:45:14.081Z,9.80
2018-04-08T16:47:41.524Z,10.00
2018-04-08T16:50:08.975Z,8.50
2018-04-08T16:52:36.398Z,17.07
2018-04-08T16:55:04.600Z,13.40
2018-04-08T16:57:32.039Z,15.30
2018-04-08T17:00:00.246Z,10.13
2018-04-08T17:02:27.687Z,10.53
2018-04-08T17:04:56.370Z,11.63
2018-04-08T17:07:23.823Z,11.03
2018-04-08T17:09:51.309Z,11.07
2018-04-08T17:12:18.747Z,9.87
2018-04-08T17:14:46.193Z,14.37
2018-04-08T17:17:13.631Z,12.20
2018-04-08T17:19:41.849Z,7.93
2018-04-08T17:22:09.282Z,9.17
2018-04-08T17:24:36.728Z,10.00
2018-04-08T17:27:05.855Z,11.70
2018-04-08T17:29:33.302Z,9.33
2018-04-08T17:32:00.734Z,9.07
2018-04-08T17:34:29.098Z,12.63
2018-04-08T17:36:56.546Z,8.07
2018-04-08T17:39:23.993Z,12.40
2018-04-08T17:41:51.451Z,10.63
2018-04-08T17:44:18.894Z,10.63
2018-04-08T17:46:46.350Z,10.17
2018-04-08T17:49:13.790Z,11.47
2018-04-08T17:51:41.231Z,9.30
2018-04-08T17:54:08.657Z,8.53
2018-04-08T17:56:36.106Z,11.20
2018-04-08T17:59:05.061Z,12.13
2018-04-08T18:01:32.513Z,11.50
2018-04-08T18:03:59.949Z,10.30
2018-04-08T18:06:27.441Z,8.87
2018-04-08T18:08:55.598Z,8.60
2018-04-08T18:11:23.052Z,11.57
2018-04-08T18:13:50.502Z,12.90
2018-04-08T18:16:17.955Z,9.90
2018-04-08T18:18:45.796Z,11.30
2018-04-08T18:21:13.234Z,11.80
2018-04-08T18:23:40.670Z,8.23
2018-04-08T18:26:08.127Z,12.60
2018-04-08T18:28:35.595Z,7.80
2018-04-08T18:31:03.009Z,8.33
2018-04-08T18:33:31.215Z,11.53
2018-04-08T18:35:58.651Z,10.80
2018-04-08T18:38:26.089Z,10.63
2018-04-08T18:40:53.586Z,11.50
2018-04-08T18:43:21.022Z,9.97
2018-04-08T18:45:48.471Z,8.43
2018-04-08T18:48:15.900Z,8.00
2018-04-08T18:50:44.148Z,9.00
2018-04-08T18:53:11.563Z,8.50
2018-04-08T18:55:39.001Z,10.13
2018-04-08T18:58:07.218Z,8.77
2018-04-08T19:00:34.667Z,7.53
2018-04-08T19:03:02.127Z,7.00
2018-04-08T19:05:29.563Z,8.57
2018-04-08T19:07:57.025Z,10.65
2018-04-08T19:10:24.452Z,7.63
2018-04-08T19:12:52.681Z,11.63
2018-04-08T19:15:20.925Z,12.43
2018-04-08T19:17:53.976Z,8.97
2018-04-08T19:20:21.418Z,6.70
2018-04-08T19:22:48.871Z,8.23
2018-04-08T19:25:16.334Z,11.10
2018-04-08T19:27:43.891Z,10.10
2018-04-08T19:30:17.076Z,9.57
2018-04-08T19:32:44.512Z,12.07
2018-04-08T19:35:12.080Z,9.27
2018-04-08T19:37:39.572Z,13.43
2018-04-08T19:40:07.045Z,10.38
2018-04-08T19:42:35.269Z,9.33
2018-04-08T19:45:02.742Z,9.03
2018-04-08T19:47:30.189Z,8.40
2018-04-08T19:49:57.643Z,10.97
2018-04-08T19:52:25.110Z,9.70
2018-04-08T19:54:52.548Z,8.30
2018-04-08T19:57:23.833Z,8.40
2018-04-08T19:59:51.327Z,7.57
2018-04-08T20:02:18.771Z,8.73
2018-04-08T20:04:46.999Z,9.50
2018-04-08T20:07:14.463Z,8.00
2018-04-08T20:09:41.909Z,10.90
2018-04-08T20:12:09.374Z,8.00
2018-04-08T20:14:36.829Z,10.70
2018-04-08T20:17:04.288Z,9.13
2018-04-08T20:19:31.746Z,8.47
2018-04-08T20:21:59.189Z,27.27
2018-04-08T20:24:26.664Z,14.00
2018-04-08T20:26:54.105Z,30.30
2018-04-08T20:29:21.625Z,18.30
2018-04-08T20:31:49.845Z,14.43
2018-04-08T20:34:17.305Z,14.17
2018-04-08T20:36:44.771Z,17.33
2018-04-08T20:39:12.224Z,14.53
2018-04-08T20:41:39.677Z,10.73
2018-04-08T20:44:07.121Z,10.00
2018-04-08T20:46:35.590Z,9.67
2018-04-08T20:49:03.064Z,8.30
2018-04-08T20:51:30.517Z,11.23
2018-04-08T20:53:57.976Z,10.53
2018-04-08T20:56:25.438Z,15.07
2018-04-08T20:58:52.913Z,17.15
2018-04-08T21:01:20.352Z,10.10
2018-04-08T21:03:47.830Z,11.80
2018-04-08T21:06:15.282Z,12.60
2018-04-08T21:08:42.725Z,13.93
2018-04-08T21:11:10.948Z,7.70
2018-04-08T21:13:39.157Z,8.43
2018-04-08T21:16:06.650Z,8.80
2018-04-08T21:18:34.081Z,11.20
2018-04-08T21:21:01.542Z,9.30
2018-04-08T21:23:28.968Z,9.50
2018-04-08T21:25:56.426Z,13.73
2018-04-08T21:28:24.601Z,14.40
2018-04-08T21:30:52.061Z,14.07
2018-04-08T21:33:19.497Z,15.30
2018-04-08T21:35:47.698Z,17.67
2018-04-08T21:38:15.129Z,15.03
2018-04-08T21:40:43.336Z,11.30
2018-04-08T21:43:10.792Z,12.37
2018-04-08T21:45:38.223Z,10.30
2018-04-08T21:48:06.425Z,9.90
2018-04-08T21:50:33.870Z,14.50
2018-04-08T21:53:01.308Z,20.10
2018-04-08T21:55:29.519Z,15.80
2018-04-08T21:57:56.993Z,19.43
2018-04-08T22:00:24.466Z,18.43
2018-04-08T22:02:51.908Z,19.03
2018-04-08T22:05:19.409Z,18.62
2018-04-08T22:07:47.615Z,21.70
2018-04-08T22:10:15.062Z,27.30
2018-04-08T22:12:42.495Z,27.63
2018-04-08T22:15:10.706Z,11.43
2018-04-08T22:17:38.137Z,14.93
2018-04-08T22:20:06.361Z,15.20
2018-04-08T22:22:33.805Z,12.33
2018-04-08T22:25:01.278Z,14.80
2018-04-08T22:27:28.722Z,38.42
2018-04-08T22:29:56.164Z,20.13
2018-04-08T22:32:23.596Z,31.00
2018-04-08T22:34:51.806Z,39.60
2018-04-08T22:37:19.248Z,37.23
2018-04-08T22:39:46.673Z,29.77
2018-04-08T22:42:14.896Z,33.33
2018-04-08T22:44:42.344Z,26.43
2018-04-08T22:47:09.804Z,21.10
2018-04-08T22:49:37.259Z,16.12
2018-04-08T22:52:04.695Z,17.43
2018-04-08T22:54:32.945Z,13.93
2018-04-08T22:57:00.386Z,14.93
2018-04-08T22:59:27.821Z,15.02
2018-04-08T23:01:55.265Z,18.33
2018-04-08T23:04:22.697Z,17.30
2018-04-08T23:06:50.151Z,16.07
2018-04-08T23:09:18.369Z,26.37
2018-04-08T23:11:45.824Z,15.43
2018-04-08T23:14:13.243Z,14.80
2018-04-08T23:16:40.691Z,15.53
2018-04-08T23:19:08.884Z,14.60
2018-04-08T23:21:36.331Z,16.90
2018-04-08T23:24:03.785Z,16.30
2018-04-08T23:26:31.992Z,12.47
2018-04-08T23:28:59.425Z,15.67
2018-04-08T23:31:26.874Z,15.87
2018-04-08T23:33:55.090Z,19.67
2018-04-08T23:36:22.535Z,13.63
2018-04-08T23:38:50.000Z,11.50
2018-04-08T23:41:17.436Z,13.43
2018-04-08T23:43:45.658Z,10.97
2018-04-08T23:46:13.105Z,12.37
2018-04-08T23:48:40.553Z,12.47
2018-04-08T23:51:07.993Z,14.63
2018-04-08T23:53:35.429Z,12.53
2018-04-08T23:56:02.875Z,10.15
2018-04-08T23:58:31.089Z,13.57
